Time;durP1;ratioP1;P1;durP2;ratioP2;P2;SDS_P1;SDS_P2;PMS_P1;PMS_P2;Temp;Humidity;BMP_temperature;BMP_pressure;BME280_temperature;BME280_humidity;BME280_pressure;Samples;Min_cycle;Max_cycle;Signal;HPM_P1;HPM_P2
2023/02/14 00:01:44;;;;;;;;;;;;;;;6.27;57.69;100187.56;4976105;28;20377;-73
2023/02/14 00:04:10;;;;;;;;;;;;;;;6.25;56.98;100187.59;4975910;28;20369;-73
2023/02/14 00:06:37;;;;;;;;;;;;;;;6.24;57.33;100185.91;4976040;28;20435;-73
2023/02/14 00:09:03;;;;;;;;;;;;;;;6.22;57.19;100186.88;4959892;28;19918;-73
2023/02/14 00:11:28;;;;;;;;;;;;;;;6.21;56.97;100187.75;4975559;28;19925;-72
2023/02/14 00:16:38;;;;;;;;;;;;;;;6.18;57.11;100195.66;4993215;28;19960;-73
2023/02/14 00:19:03;;;;;;;;;;;;;;;6.14;57.31;100198.34;4975692;28;19960;-72
2023/02/14 00:21:29;;;;;;;;;;;;;;;6.13;56.79;100190.63;4993028;28;19918;-72
2023/02/14 00:23:54;;;;;;;;;;;;;;;6.12;57.25;100194.97;4959565;28;19917;-73
2023/02/14 00:26:20;;;;;;;;;;;;;;;6.13;57.02;100201.00;4975889;28;20385;-73
2023/02/14 00:28:45;;;;;;;;;;;;;;;6.11;57.25;100201.03;4975405;28;19954;-73
2023/02/14 00:31:10;;;;;;;;;;;;;;;6.09;57.21;100202.00;4975501;28;19918;-72
2023/02/14 00:33:35;;;;;;;;;;;;;;;6.07;57.21;100204.66;4993260;28;19918;-72
2023/02/14 00:36:02;;;;;;;;;;;;;;;6.06;57.03;100205.53;4959357;28;19918;-72
2023/02/14 00:38:27;;;;;;;;;;;;;;;6.05;56.81;100198.66;4959297;28;20405;-72
2023/02/14 00:40:53;;;;;;;;;;;;;;;6.04;56.58;100196.13;4959384;28;19918;-72
2023/02/14 00:43:18;;;;;;;;;;;;;;;6.02;57.05;100195.34;4975553;28;20016;-72
2023/02/14 00:45:43;;;;;;;;;;;;;;;6.00;56.96;100187.59;4975643;28;19925;-73
2023/02/14 00:48:08;;;;;;;;;;;;;;;6.00;56.75;100195.38;4994176;28;20012;-73
2023/02/14 00:50:34;;;;;;;;;;;;;;;5.97;56.74;100200.66;4979760;28;19929;-73
2023/02/14 00:52:59;;;;;;;;;;;;;;;5.96;56.93;100197.25;4979215;28;19921;-74
2023/02/14 00:55:24;;;;;;;;;;;;;;;5.95;56.23;100195.50;4979230;28;19918;-73
2023/02/14 00:57:50;;;;;;;;;;;;;;;5.93;56.58;100189.53;4978954;28;19917;-73
2023/02/14 01:00:15;;;;;;;;;;;;;;;5.91;56.99;100173.16;4962936;28;20411;-73
2023/02/14 01:02:41;;;;;;;;;;;;;;;5.89;56.44;100172.38;4962993;28;19917;-73
2023/02/14 01:05:06;;;;;;;;;;;;;;;5.87;56.80;100156.03;4979192;28;19968;-74
2023/02/14 01:07:31;;;;;;;;;;;;;;;5.85;56.55;100157.84;4962765;28;20016;-74
2023/02/14 01:09:57;;;;;;;;;;;;;;;5.84;56.89;100166.50;4979030;28;19980;-73
2023/02/14 01:12:22;;;;;;;;;;;;;;;5.83;56.48;100166.56;4979037;28;19917;-73
2023/02/14 01:14:47;;;;;;;;;;;;;;;5.82;56.96;100152.78;4978659;28;19922;-73
2023/02/14 01:17:12;;;;;;;;;;;;;;;5.82;57.04;100154.50;4978800;28;19925;-73
2023/02/14 01:19:41;;;;;;;;;;;;;;;5.82;56.85;100151.91;4962067;28;19924;-74
2023/02/14 01:22:06;;;;;;;;;;;;;;;5.82;57.09;100149.31;4978184;28;20423;-74
2023/02/14 01:24:31;;;;;;;;;;;;;;;5.81;56.59;100151.06;4962526;28;19921;-74
2023/02/14 01:26:57;;;;;;;;;;;;;;;5.80;56.33;100142.47;4978624;28;19928;-74
2023/02/14 01:29:22;;;;;;;;;;;;;;;5.80;56.58;100139.00;4978544;28;19945;-73
2023/02/14 01:31:48;;;;;;;;;;;;;;;5.78;56.51;100141.66;4962422;28;20288;-72
2023/02/14 01:34:13;;;;;;;;;;;;;;;5.78;56.79;100141.66;4962480;28;20000;-72
2023/02/14 01:36:39;;;;;;;;;;;;;;;5.77;56.73;100136.50;4978258;28;19918;-72
2023/02/14 01:39:05;;;;;;;;;;;;;;;5.77;56.81;100146.88;4978248;28;19918;-72
2023/02/14 01:41:31;;;;;;;;;;;;;;;5.76;56.80;100147.78;4978888;28;19917;-72
2023/02/14 01:44:03;;;;;;;;;;;;;;;5.76;56.73;100142.63;4962116;28;19925;-73
2023/02/14 01:46:30;;;;;;;;;;;;;;;5.75;56.93;100139.16;4978162;28;19917;-73
2023/02/14 01:48:57;;;;;;;;;;;;;;;5.74;56.60;100142.66;4995594;28;19918;-73
2023/02/14 01:51:24;;;;;;;;;;;;;;;5.73;56.73;100138.38;4978376;28;19922;-73
2023/02/14 01:53:49;;;;;;;;;;;;;;;5.72;56.77;100131.47;4977933;28;20289;-72
2023/02/14 01:56:16;;;;;;;;;;;;;;;5.71;56.84;100124.63;4961654;28;19976;-72
2023/02/14 01:58:43;;;;;;;;;;;;;;;5.71;56.72;100110.81;4961624;28;19918;-72
2023/02/14 02:01:10;;;;;;;;;;;;;;;5.69;56.49;100108.25;4977558;28;19918;-72
2023/02/14 02:03:37;;;;;;;;;;;;;;;5.69;56.71;100110.84;4961144;28;19918;-73
2023/02/14 02:06:10;;;;;;;;;;;;;;;5.67;56.56;100102.31;4977664;28;19961;-73
2023/02/14 02:08:36;;;;;;;;;;;;;;;5.66;56.81;100100.63;4978217;28;19918;-73
2023/02/14 02:11:01;;;;;;;;;;;;;;;5.66;56.42;100100.63;4977181;28;19917;-73
2023/02/14 02:13:26;;;;;;;;;;;;;;;5.66;56.42;100110.13;4976838;28;20013;-73
2023/02/14 02:16:10;;;;;;;;;;;;;;;5.66;56.74;100103.22;4994468;28;19925;-73
2023/02/14 02:18:54;;;;;;;;;;;;;;;5.66;56.56;100108.41;4976293;28;19917;-73
2023/02/14 02:21:28;;;;;;;;;;;;;;;5.65;56.44;100093.75;4994585;28;19941;-73
2023/02/14 02:24:12;;;;;;;;;;;;;;;5.65;56.20;100080.78;4977543;28;20005;-73
2023/02/14 02:26:43;;;;;;;;;;;;;;;5.65;56.03;100080.78;4994518;28;20368;-72
2023/02/14 02:29:17;;;;;;;;;;;;;;;5.65;56.45;100073.03;4961395;28;20372;-72
2023/02/14 02:31:43;;;;;;;;;;;;;;;5.65;56.24;100073.03;4976978;28;20008;-71
2023/02/14 02:34:27;;;;;;;;;;;;;;;5.66;56.79;100074.72;4977359;28;20064;-71
2023/02/14 02:36:58;;;;;;;;;;;;;;;5.66;56.53;100068.66;4995077;28;19941;-74
2023/02/14 02:39:23;;;;;;;;;;;;;;;5.66;56.29;100066.09;4961040;28;20370;-74
2023/02/14 02:42:03;;;;;;;;;;;;;;;5.66;56.52;100064.34;4993803;28;20004;-74
2023/02/14 02:44:29;;;;;;;;;;;;;;;5.66;56.62;100069.53;4993446;28;20373;-74
2023/02/14 02:46:57;;;;;;;;;;;;;;;5.66;56.32;100068.66;4994065;28;19917;-74
2023/02/14 02:55:15;;;;;;;;;;;;;;;5.67;56.43;100068.63;4991286;28;20449;-72
2023/02/14 02:57:40;;;;;;;;;;;;;;;5.67;56.54;100063.44;4976859;28;20016;-74
2023/02/14 03:00:06;;;;;;;;;;;;;;;5.67;56.61;100055.66;4976901;28;20432;-74
2023/02/14 03:02:32;;;;;;;;;;;;;;;5.67;56.35;100055.66;4977180;28;19917;-74
2023/02/14 03:04:58;;;;;;;;;;;;;;;5.67;56.48;100071.22;4960149;28;19922;-74
2023/02/14 03:07:35;;;;;;;;;;;;;;;5.68;56.16;100075.50;4960277;28;19968;-74
2023/02/14 03:10:06;;;;;;;;;;;;;;;5.69;55.96;100068.56;4976590;28;19918;-73
2023/02/14 03:12:36;;;;;;;;;;;;;;;5.67;55.97;100054.84;4975488;28;20009;-74
2023/02/14 03:15:07;;;;;;;;;;;;;;;5.67;55.90;100057.44;4975514;28;19922;-74
2023/02/14 03:17:32;;;;;;;;;;;;;;;5.66;56.50;100059.19;4975547;28;19925;-73
2023/02/14 03:20:14;;;;;;;;;;;;;;;5.65;55.86;100060.06;4975464;28;19918;-73
2023/02/14 03:22:42;;;;;;;;;;;;;;;5.66;55.91;100047.94;4975744;28;19918;-73
2023/02/14 03:25:37;;;;;;;;;;;;;;;5.67;56.64;100052.25;4976365;28;20036;-73
2023/02/14 03:28:19;;;;;;;;;;;;;;;5.64;56.07;100053.19;4933987;29;19918;-73
2023/02/14 03:30:45;;;;;;;;;;;;;;;5.64;56.62;100070.47;4902321;29;20333;-74
2023/02/14 03:33:22;;;;;;;;;;;;;;;5.61;56.27;100056.75;4917972;29;20054;-74
2023/02/14 03:35:50;;;;;;;;;;;;;;;5.61;56.29;100054.16;4901844;29;19918;-74
2023/02/14 03:38:39;;;;;;;;;;;;;;;5.61;56.30;100043.78;4902186;29;20431;-75
2023/02/14 03:41:06;;;;;;;;;;;;;;;5.58;55.70;100038.72;4925803;29;19919;-76
2023/02/14 03:43:54;;;;;;;;;;;;;;;5.58;56.24;100032.66;4917923;29;19942;-74
2023/02/14 03:46:24;;;;;;;;;;;;;;;5.56;55.67;100030.13;4877451;29;20448;-73
2023/02/14 03:48:50;;;;;;;;;;;;;;;5.53;55.92;100032.81;4861461;29;19927;-74
2023/02/14 03:51:15;;;;;;;;;;;;;;;5.52;56.05;100030.28;4860831;29;19923;-73
2023/02/14 03:53:42;;;;;;;;;;;;;;;5.50;55.83;100022.56;4876846;29;19924;-74
2023/02/14 03:56:26;;;;;;;;;;;;;;;5.49;56.10;100030.41;4877153;29;19932;-74
2023/02/14 03:58:52;;;;;;;;;;;;;;;5.46;55.93;100036.53;4876851;29;19926;-74
2023/02/14 04:01:22;;;;;;;;;;;;;;;5.45;55.94;100034.84;4861700;29;20015;-74
2023/02/14 04:03:47;;;;;;;;;;;;;;;5.43;56.04;100039.25;4884403;29;20437;-74
2023/02/14 04:06:12;;;;;;;;;;;;;;;5.42;55.75;100032.34;4883041;29;19926;-74
2023/02/14 04:08:38;;;;;;;;;;;;;;;5.40;55.98;100024.63;4882963;29;19926;-74
2023/02/14 04:11:03;;;;;;;;;;;;;;;5.39;55.84;100028.16;4914325;29;19919;-73
2023/02/14 04:13:28;;;;;;;;;;;;;;;5.38;55.66;100020.44;4898513;29;19919;-73
2023/02/14 04:15:54;;;;;;;;;;;;;;;5.38;55.90;100018.69;4898080;29;19923;-72
2023/02/14 04:21:03;;;;;;;;;;;;;;;5.36;55.78;100012.72;4901139;29;19946;-73
2023/02/14 04:23:28;;;;;;;;;;;;;;;5.34;55.55;100013.66;4944015;28;20408;-73
2023/02/14 04:25:54;;;;;;;;;;;;;;;5.33;56.13;100007.63;4963551;28;20349;-73
2023/02/14 04:28:19;;;;;;;;;;;;;;;5.32;55.69;100000.75;4963029;28;19917;-75
2023/02/14 04:30:44;;;;;;;;;;;;;;;5.31;55.35;99996.47;4979655;28;19976;-74
2023/02/14 04:33:10;;;;;;;;;;;;;;;5.31;55.87;99993.03;4979491;28;20001;-74
2023/02/14 04:35:35;;;;;;;;;;;;;;;5.31;55.35;99987.88;4963668;28;20376;-73
2023/02/14 04:38:01;;;;;;;;;;;;;;;5.29;55.78;99981.91;4963320;28;19992;-72
2023/02/14 04:40:26;;;;;;;;;;;;;;;5.29;55.71;99974.13;4963288;28;19980;-72
2023/02/14 04:42:51;;;;;;;;;;;;;;;5.28;55.18;99981.03;4979792;28;19957;-72
2023/02/14 04:45:17;;;;;;;;;;;;;;;5.28;55.04;99982.78;4978584;28;19921;-73
2023/02/14 04:47:42;;;;;;;;;;;;;;;5.26;55.29;99980.25;4979230;28;19918;-72
2023/02/14 04:50:08;;;;;;;;;;;;;;;5.25;55.55;99978.59;4996751;28;19976;-73
2023/02/14 04:52:33;;;;;;;;;;;;;;;5.24;55.64;99979.47;4962801;28;20308;-73
2023/02/14 04:54:58;;;;;;;;;;;;;;;5.23;55.67;99972.59;4979328;28;20032;-72
2023/02/14 04:57:23;;;;;;;;;;;;;;;5.24;55.22;99984.66;4979045;28;20064;-72
2023/02/14 04:59:49;;;;;;;;;;;;;;;5.22;55.09;99974.34;4962831;28;19918;-73
2023/02/14 05:02:14;;;;;;;;;;;;;;;5.21;55.21;99977.81;4979162;28;19976;-74
2023/02/14 05:04:39;;;;;;;;;;;;;;;5.21;55.41;99984.75;4962226;28;19921;-76
2023/02/14 05:07:05;;;;;;;;;;;;;;;5.20;54.96;99981.31;4962061;28;19925;-77
2023/02/14 05:09:30;;;;;;;;;;;;;;;5.20;55.03;99976.16;4996107;28;19925;-75
2023/02/14 05:11:55;;;;;;;;;;;;;;;5.20;54.80;99975.28;4996594;28;20381;-73
2023/02/14 05:14:21;;;;;;;;;;;;;;;5.19;55.18;99979.63;4996626;28;19917;-71
2023/02/14 05:16:46;;;;;;;;;;;;;;;5.20;54.83;99983.91;4978766;28;19917;-70
2023/02/14 05:19:11;;;;;;;;;;;;;;;5.20;54.78;99981.31;4962474;28;20308;-71
2023/02/14 05:21:37;;;;;;;;;;;;;;;5.21;55.24;99980.41;4979022;28;19929;-71
2023/02/14 05:24:03;;;;;;;;;;;;;;;5.22;54.63;99979.53;4996058;28;19973;-75
2023/02/14 05:26:28;;;;;;;;;;;;;;;5.34;58.38;99987.75;4961759;28;19918;-71
2023/02/14 05:28:53;;;;;;;;;;;;;;;5.40;57.00;99992.72;4978346;28;19922;-71
2023/02/14 05:31:18;;;;;;;;;;;;;;;5.50;56.59;99994.09;4962127;28;19918;-73
2023/02/14 05:33:44;;;;;;;;;;;;;;;5.72;55.52;99985.56;4962133;28;20286;-72
2023/02/14 05:36:09;;;;;;;;;;;;;;;5.88;55.46;99983.25;4962082;28;20380;-77
2023/02/14 05:38:34;;;;;;;;;;;;;;;6.70;71.14;99968.88;4978226;28;19930;-79
2023/02/14 05:41:00;;;;;;;;;;;;;;;7.09;64.89;99963.84;4962925;28;19918;-75
2023/02/14 05:43:25;;;;;;;;;;;;;;;7.39;61.78;99972.06;4995680;28;19924;-77
2023/02/14 05:45:51;;;;;;;;;;;;;;;7.65;58.29;99970.06;4995840;28;19961;-75
2023/02/14 05:48:16;;;;;;;;;;;;;;;7.88;57.10;99969.88;4978299;28;19992;-74
2023/02/14 05:50:44;;;;;;;;;;;;;;;8.12;55.60;99970.50;4978033;28;20369;-72
2023/02/14 05:53:09;;;;;;;;;;;;;;;8.40;54.58;99968.38;4979136;28;19976;-73
2023/02/14 05:55:34;;;;;;;;;;;;;;;8.72;53.59;99973.84;4977004;28;20436;-72
2023/02/14 05:58:00;;;;;;;;;;;;;;;9.05;53.34;99966.94;4977105;28;19918;-90
2023/02/14 06:00:25;;;;;;;;;;;;;;;9.46;52.29;99964.91;4974423;28;20507;-69
2023/02/14 06:02:50;;;;;;;;;;;;;;;10.14;64.33;99970.81;4993889;28;19918;-74
2023/02/14 06:05:18;;;;;;;;;;;;;;;10.77;60.06;99966.47;4984796;28;20377;-75
2023/02/14 06:07:49;;;;;;;;;;;;;;;11.12;56.11;99963.59;4976330;28;19917;-71
2023/02/14 06:10:15;;;;;;;;;;;;;;;11.51;57.08;99961.28;4994168;28;19918;-72
2023/02/14 06:12:40;;;;;;;;;;;;;;;11.95;56.55;99957.72;4976013;28;19922;-73
2023/02/14 06:15:05;;;;;;;;;;;;;;;12.23;55.60;99951.59;4973596;28;19941;-71
2023/02/14 06:17:31;;;;;;;;;;;;;;;12.58;54.83;99947.66;4992564;28;20377;-70
2023/02/14 06:19:56;;;;;;;;;;;;;;;13.00;54.33;99953.63;4975951;28;19929;-71
2023/02/14 06:22:21;;;;;;;;;;;;;;;13.49;53.74;99958.19;4991911;28;19922;-71
2023/02/14 06:24:47;;;;;;;;;;;;;;;13.99;53.11;99952.13;4991763;28;19921;-72
2023/02/14 06:27:12;;;;;;;;;;;;;;;14.50;52.03;99956.34;4976254;28;19918;-72
2023/02/14 06:29:37;;;;;;;;;;;;;;;14.99;51.12;99957.97;4993055;28;20009;-76
2023/02/14 06:32:05;;;;;;;;;;;;;;;15.46;49.74;99957.94;4975941;28;19972;-77
2023/02/14 06:34:31;;;;;;;;;;;;;;;15.97;49.61;99968.03;4960225;28;19953;-73
2023/02/14 06:36:56;;;;;;;;;;;;;;;16.42;48.12;99967.09;4974856;28;19965;-73
2023/02/14 06:39:22;;;;;;;;;;;;;;;16.88;47.13;99962.50;4975450;28;19961;-72
2023/02/14 06:41:47;;;;;;;;;;;;;;;17.38;46.76;99954.78;4974795;28;20324;-74
2023/02/14 06:44:12;;;;;;;;;;;;;;;17.83;45.11;99959.66;4959714;28;20045;-79
2023/02/14 06:46:37;;;;;;;;;;;;;;;18.27;44.29;99959.41;4975052;28;19926;-76
2023/02/14 06:49:03;;;;;;;;;;;;;;;18.69;43.48;99953.00;4973283;28;19918;-73
2023/02/14 06:51:28;;;;;;;;;;;;;;;19.12;42.31;99949.94;4975490;28;19940;-76
2023/02/14 06:53:53;;;;;;;;;;;;;;;19.75;40.74;99950.28;4974537;28;20425;-76
2023/02/14 06:56:19;;;;;;;;;;;;;;;20.38;39.37;99952.16;4975373;28;19917;-75
2023/02/14 06:58:44;;;;;;;;;;;;;;;21.29;37.74;99949.28;4975728;28;19917;-72
2023/02/14 07:01:09;;;;;;;;;;;;;;;22.19;35.81;99954.16;4973472;28;20003;-74
2023/02/14 07:03:35;;;;;;;;;;;;;;;21.74;26.16;99946.53;4963887;28;19967;-71
2023/02/14 07:06:00;;;;;;;;;;;;;;;22.79;31.14;99943.44;4974653;28;19924;-72
2023/02/14 07:08:25;;;;;;;;;;;;;;;23.76;29.72;99949.59;4974278;28;19922;-72
2023/02/14 07:10:54;;;;;;;;;;;;;;;24.64;29.85;99947.63;4991930;28;19922;-73
2023/02/14 07:13:19;;;;;;;;;;;;;;;25.37;29.50;99952.50;4974387;28;20321;-71
2023/02/14 07:15:45;;;;;;;;;;;;;;;25.84;27.82;99945.91;4959974;28;19918;-75
2023/02/14 07:18:11;;;;;;;;;;;;;;;26.10;26.12;99953.44;4983720;28;19925;-74
2023/02/14 07:20:36;;;;;;;;;;;;;;;26.15;27.64;99942.16;4993314;28;20001;-72
2023/02/14 07:23:01;;;;;;;;;;;;;;;25.79;26.48;99938.44;4993452;28;19940;-72
2023/02/14 07:25:27;;;;;;;;;;;;;;;25.51;27.49;99942.78;4989846;28;19932;-70
2023/02/14 07:27:52;;;;;;;;;;;;;;;24.71;22.72;99942.38;4992471;28;20010;-72
2023/02/14 07:30:17;;;;;;;;;;;;;;;21.95;19.38;99935.47;4965873;28;20305;-71
2023/02/14 07:32:43;;;;;;;;;;;;;;;20.01;21.68;99945.16;4964214;28;20389;-74
2023/02/14 07:35:08;;;;;;;;;;;;;;;19.27;22.76;99933.59;4949405;28;20403;-73
2023/02/14 07:37:34;;;;;;;;;;;;;;;17.44;24.61;99941.06;4965475;28;19918;-75
2023/02/14 07:39:59;;;;;;;;;;;;;;;18.19;32.71;99946.88;4965125;28;20003;-75
2023/02/14 07:42:25;;;;;;;;;;;;;;;19.11;34.23;99945.63;4946067;28;19969;-72
2023/02/14 07:44:50;;;;;;;;;;;;;;;19.94;35.85;99952.88;4965218;28;19919;-75
2023/02/14 07:47:15;;;;;;;;;;;;;;;20.61;35.77;99947.25;4974201;28;19922;-77
2023/02/14 07:49:41;;;;;;;;;;;;;;;21.14;35.99;99948.19;4977477;28;19965;-74
2023/02/14 07:52:06;;;;;;;;;;;;;;;21.54;34.86;99944.13;4923149;29;19923;-73
2023/02/14 07:54:31;;;;;;;;;;;;;;;21.83;34.24;99950.91;4937376;29;20389;-72
2023/02/14 07:56:57;;;;;;;;;;;;;;;22.11;33.44;99961.31;4921258;29;20433;-72
2023/02/14 07:59:22;;;;;;;;;;;;;;;22.38;32.16;99960.22;4937704;29;20306;-73
2023/02/14 08:01:47;;;;;;;;;;;;;;;22.63;31.28;99965.56;4937967;29;19977;-74
2023/02/14 08:04:13;;;;;;;;;;;;;;;22.90;32.75;99965.25;4921485;29;19918;-72
2023/02/14 08:06:41;;;;;;;;;;;;;;;23.10;32.40;99944.47;4954991;29;19926;-70
2023/02/14 08:09:08;;;;;;;;;;;;;;;23.26;30.83;99945.41;4921897;29;20354;-76
2023/02/14 08:14:18;;;;;;;;;;;;;;;23.54;32.12;99955.66;4944293;29;19929;-76
2023/02/14 08:16:43;;;;;;;;;;;;;;;23.77;30.83;99967.25;4921644;29;19918;-73
2023/02/14 08:19:12;;;;;;;;;;;;;;;23.88;29.30;99954.56;4937416;29;19958;-77
2023/02/14 08:21:37;;;;;;;;;;;;;;;24.01;27.88;99958.31;4954465;29;19919;-72
2023/02/14 08:24:03;;;;;;;;;;;;;;;24.09;26.56;99943.31;4938225;29;19918;-79
2023/02/14 08:26:31;;;;;;;;;;;;;;;24.19;25.82;99946.56;4922539;29;20013;-79
2023/02/14 08:28:57;;;;;;;;;;;;;;;24.28;25.21;99936.69;4924909;29;20018;-80
2023/02/14 08:31:27;;;;;;;;;;;;;;;24.36;24.46;99934.78;4937581;29;19918;-79
2023/02/14 08:33:52;;;;;;;;;;;;;;;24.41;23.67;99936.91;4937832;29;20386;-79
2023/02/14 08:36:18;;;;;;;;;;;;;;;24.41;25.04;99941.44;4938353;29;19973;-84
2023/02/14 08:38:46;;;;;;;;;;;;;;;24.53;23.80;99946.16;4937811;29;19918;-79
2023/02/14 08:41:11;;;;;;;;;;;;;;;24.59;22.46;99936.66;4937482;29;19997;-75
2023/02/14 08:43:36;;;;;;;;;;;;;;;24.65;21.88;99938.59;4941212;28;20397;-77
2023/02/14 08:46:02;;;;;;;;;;;;;;;24.65;21.54;99932.44;4939451;28;19969;-78
2023/02/14 08:48:27;;;;;;;;;;;;;;;24.73;21.46;99930.53;4938978;28;19926;-77
2023/02/14 08:50:53;;;;;;;;;;;;;;;24.86;20.95;99921.06;4953394;28;19976;-73
2023/02/14 08:53:21;;;;;;;;;;;;;;;24.82;20.47;99917.09;4940706;28;20321;-82
2023/02/14 08:55:46;;;;;;;;;;;;;;;24.93;26.29;99935.34;4971878;28;20049;-80
2023/02/14 08:58:12;;;;;;;;;;;;;;;25.02;26.27;99928.09;4955061;28;20444;-72
2023/02/14 09:00:37;;;;;;;;;;;;;;;25.19;25.74;99923.41;4971748;28;19941;-78
2023/02/14 09:03:02;;;;;;;;;;;;;;;25.35;25.02;99917.94;4955246;28;19926;-80
2023/02/14 09:05:28;;;;;;;;;;;;;;;25.51;23.10;99916.06;4952885;29;19976;-70
2023/02/14 09:07:55;;;;;;;;;;;;;;;25.58;21.78;99919.66;4936725;29;20370;-71
2023/02/14 09:10:21;;;;;;;;;;;;;;;25.63;20.61;99919.91;4939074;29;20424;-77
2023/02/14 09:12:47;;;;;;;;;;;;;;;25.71;20.07;99903.75;4939918;29;20021;-79
2023/02/14 09:15:12;;;;;;;;;;;;;;;25.62;22.25;99894.22;4952154;28;19964;-75
2023/02/14 09:17:38;;;;;;;;;;;;;;;25.81;21.33;99900.81;4942565;28;19965;-74
2023/02/14 09:20:05;;;;;;;;;;;;;;;25.99;20.64;99903.91;4942955;28;19965;-73
2023/02/14 09:22:31;;;;;;;;;;;;;;;26.24;20.23;99894.72;4955517;28;19926;-75
2023/02/14 09:24:56;;;;;;;;;;;;;;;26.44;19.60;99903.75;4941839;28;19922;-74
2023/02/14 09:27:21;;;;;;;;;;;;;;;26.71;19.05;99899.47;4953884;29;19919;-74
2023/02/14 09:29:47;;;;;;;;;;;;;;;26.88;18.18;99912.56;4968030;28;20684;-74
2023/02/14 09:32:12;;;;;;;;;;;;;;;26.82;16.93;99894.59;4959942;28;19921;-75
2023/02/14 09:34:37;;;;;;;;;;;;;;;27.23;15.69;99888.47;4985803;28;19926;-77
2023/02/14 09:39:47;;;;;;;;;;;;;;;27.46;17.02;99898.13;4992659;28;19954;-76
2023/02/14 09:42:21;;;;;;;;;;;;;;;27.38;16.90;99891.88;4991814;28;19918;-71
2023/02/14 09:44:50;;;;;;;;;;;;;;;26.87;17.39;99893.00;4992298;28;20013;-75
2023/02/14 09:47:29;;;;;;;;;;;;;;;26.27;18.26;99878.28;4975060;28;19925;-76
2023/02/14 09:49:54;;;;;;;;;;;;;;;25.99;17.39;99874.50;4975450;28;19945;-73
2023/02/14 09:52:20;;;;;;;;;;;;;;;25.83;20.28;99874.72;4981682;28;19938;-72
2023/02/14 09:54:47;;;;;;;;;;;;;;;25.73;17.81;99864.31;4958711;28;19934;-76
2023/02/14 09:57:16;;;;;;;;;;;;;;;25.62;18.55;99865.63;4975421;28;19926;-77
2023/02/14 09:59:41;;;;;;;;;;;;;;;25.51;18.93;99866.13;4958690;28;20308;-74
2023/02/14 10:02:15;;;;;;;;;;;;;;;24.69;20.61;99857.13;4975321;28;19918;-76
2023/02/14 10:05:01;;;;;;;;;;;;;;;24.63;18.88;99859.72;4992794;28;19921;-76
2023/02/14 10:07:29;;;;;;;;;;;;;;;24.73;18.66;99854.94;4990538;28;19921;-76
2023/02/14 10:09:55;;;;;;;;;;;;;;;24.88;18.04;99833.59;4973150;28;19922;-75
2023/02/14 10:12:20;;;;;;;;;;;;;;;24.85;17.13;99823.28;4974992;28;19930;-76
2023/02/14 10:14:45;;;;;;;;;;;;;;;24.89;16.31;99827.22;4992970;28;19918;-77
2023/02/14 10:17:16;;;;;;;;;;;;;;;24.85;16.17;99818.75;4992730;28;20326;-77
2023/02/14 10:19:58;;;;;;;;;;;;;;;24.82;16.05;99821.78;4972317;28;19925;-74
2023/02/14 10:22:37;;;;;;;;;;;;;;;24.80;16.65;99818.50;4991199;28;19926;-77
2023/02/14 10:25:05;;;;;;;;;;;;;;;24.70;16.13;99836.59;4989360;28;20000;-79
2023/02/14 10:27:31;;;;;;;;;;;;;;;24.64;15.73;99821.34;4981936;28;19960;-80
2023/02/14 10:29:56;;;;;;;;;;;;;;;24.53;15.60;99814.56;4993956;28;19949;-80
2023/02/14 10:32:34;;;;;;;;;;;;;;;24.42;15.88;99815.81;4960287;28;19928;-80
2023/02/14 10:34:59;;;;;;;;;;;;;;;24.41;16.17;99810.66;4962847;28;19918;-77
2023/02/14 10:37:31;;;;;;;;;;;;;;;24.39;15.90;99816.19;4961337;28;19922;-81
2023/02/14 10:40:00;;;;;;;;;;;;;;;24.26;16.18;99821.28;4976414;28;19918;-77
2023/02/14 10:42:45;;;;;;;;;;;;;;;24.16;16.20;99819.72;4992659;28;19917;-72
2023/02/14 10:45:14;;;;;;;;;;;;;;;24.03;15.83;99817.63;4970345;28;20400;-76
2023/02/14 10:47:40;;;;;;;;;;;;;;;23.86;16.16;99808.09;4973590;28;19924;-78
2023/02/14 10:50:08;;;;;;;;;;;;;;;23.75;16.23;99805.81;4992356;28;19922;-74
2023/02/14 10:52:33;;;;;;;;;;;;;;;23.67;16.54;99806.69;4974532;28;20449;-78
2023/02/14 10:54:59;;;;;;;;;;;;;;;23.57;16.40;99808.75;4975289;28;19973;-78
2023/02/14 10:57:28;;;;;;;;;;;;;;;23.42;16.72;99804.16;4971630;28;20396;-79
2023/02/14 10:59:55;;;;;;;;;;;;;;;23.36;17.49;99799.53;4994049;28;19922;-83
2023/02/14 11:02:38;;;;;;;;;;;;;;;23.22;17.15;99809.09;4978460;28;19941;-83
2023/02/14 11:05:04;;;;;;;;;;;;;;;23.00;16.88;99794.66;4978066;28;19921;-82
2023/02/14 11:07:29;;;;;;;;;;;;;;;22.83;17.17;99796.53;4959316;28;19929;-86
2023/02/14 11:09:55;;;;;;;;;;;;;;;22.65;17.07;99794.09;4991358;28;19918;-84
2023/02/14 11:12:31;;;;;;;;;;;;;;;22.57;17.52;99786.13;4990962;28;19925;-82
2023/02/14 11:15:10;;;;;;;;;;;;;;;22.42;17.34;99779.81;4990766;28;19981;-84
2023/02/14 11:17:36;;;;;;;;;;;;;;;22.23;17.13;99777.34;4990298;28;19918;-85
2023/02/14 11:20:17;;;;;;;;;;;;;;;22.05;17.59;99774.81;4990377;28;19918;-82
2023/02/14 11:22:42;;;;;;;;;;;;;;;21.95;17.71;99768.00;4990886;28;19926;-83
2023/02/14 11:25:35;;;;;;;;;;;;;;;21.73;17.82;99766.81;4974453;28;19922;-82
2023/02/14 11:28:04;;;;;;;;;;;;;;;21.58;18.28;99777.28;4973981;28;20016;-80
2023/02/14 11:30:29;;;;;;;;;;;;;;;21.43;18.09;99769.09;4989862;28;20518;-82
2023/02/14 11:32:55;;;;;;;;;;;;;;;21.29;18.25;99768.69;4974922;28;20139;-80
2023/02/14 11:35:23;;;;;;;;;;;;;;;21.15;18.37;99764.81;4973183;28;19918;-80
2023/02/14 11:37:49;;;;;;;;;;;;;;;21.03;18.45;99758.16;4989852;28;20278;-83
2023/02/14 11:40:34;;;;;;;;;;;;;;;20.92;18.42;99755.78;4989724;28;19925;-80
2023/02/14 11:43:01;;;;;;;;;;;;;;;20.69;18.44;99748.38;4972780;28;20348;-81
2023/02/14 11:45:31;;;;;;;;;;;;;;;20.52;18.52;99758.03;4989370;28;19931;-79
2023/02/14 11:48:15;;;;;;;;;;;;;;;20.36;18.56;99744.66;4989441;28;19918;-81
2023/02/14 11:50:41;;;;;;;;;;;;;;;20.19;18.69;99743.72;4973406;28;19922;-81
2023/02/14 11:53:09;;;;;;;;;;;;;;;20.03;19.13;99745.25;4988973;28;19953;-80
2023/02/14 11:55:34;;;;;;;;;;;;;;;19.87;19.22;99735.34;4989314;28;19927;-81
2023/02/14 11:58:00;;;;;;;;;;;;;;;19.73;19.17;99732.38;4989775;28;20023;-80
2023/02/14 12:00:26;;;;;;;;;;;;;;;19.57;19.32;99723.28;4989308;28;19919;-80
2023/02/14 12:02:51;;;;;;;;;;;;;;;19.40;19.79;99710.88;4989554;28;19965;-80
2023/02/14 12:05:16;;;;;;;;;;;;;;;19.23;19.78;99723.97;4989355;28;19968;-80
2023/02/14 12:07:42;;;;;;;;;;;;;;;19.12;20.14;99725.00;4989081;28;19918;-81
2023/02/14 12:10:10;;;;;;;;;;;;;;;19.00;20.36;99730.63;4989212;28;19918;-80
2023/02/14 12:12:36;;;;;;;;;;;;;;;18.82;20.16;99723.44;4974125;28;19969;-80
2023/02/14 12:15:35;;;;;;;;;;;;;;;18.65;20.22;99729.50;4989405;28;19922;-82
2023/02/14 12:18:00;;;;;;;;;;;;;;;18.41;20.54;99734.28;4952823;29;19919;-81
2023/02/14 12:20:32;;;;;;;;;;;;;;;18.17;20.83;99736.56;4952787;29;20314;-81
2023/02/14 12:23:00;;;;;;;;;;;;;;;18.02;20.71;99731.72;4936926;29;19918;-82
2023/02/14 12:25:26;;;;;;;;;;;;;;;17.86;20.87;99718.22;4936655;29;19922;-80
2023/02/14 12:27:53;;;;;;;;;;;;;;;17.72;20.96;99719.47;4936060;29;20058;-81
2023/02/14 12:30:22;;;;;;;;;;;;;;;17.53;21.15;99721.13;4936779;29;20013;-84
2023/02/14 12:32:48;;;;;;;;;;;;;;;17.42;21.09;99723.91;4937048;29;20406;-84
2023/02/14 12:35:14;;;;;;;;;;;;;;;17.19;21.40;99720.69;4937254;29;19918;-83
2023/02/14 12:37:44;;;;;;;;;;;;;;;17.08;21.71;99723.41;4954382;29;20058;-83
2023/02/14 12:40:11;;;;;;;;;;;;;;;16.96;21.64;99720.88;4937099;29;19918;-83
2023/02/14 12:42:37;;;;;;;;;;;;;;;16.82;21.83;99706.25;4953262;29;19978;-82
2023/02/14 12:45:20;;;;;;;;;;;;;;;16.72;22.03;99713.28;4955854;28;19922;-82
2023/02/14 12:48:11;;;;;;;;;;;;;;;16.61;21.93;99714.19;4956378;29;20333;-81
2023/02/14 12:50:36;;;;;;;;;;;;;;;16.48;22.47;99703.03;4940105;29;19930;-77
2023/02/14 12:53:04;;;;;;;;;;;;;;;16.36;22.63;99704.91;4956401;29;19922;-78
2023/02/14 12:55:35;;;;;;;;;;;;;;;16.25;22.72;99712.91;4972820;28;20377;-78
2023/02/14 12:58:14;;;;;;;;;;;;;;;16.18;23.05;99714.41;4956930;29;19926;-78
2023/02/14 13:00:42;;;;;;;;;;;;;;;16.05;23.17;99719.81;4956996;29;19918;-78
2023/02/14 13:03:25;;;;;;;;;;;;;;;15.97;23.31;99714.38;4973345;28;20369;-80
2023/02/14 13:06:19;;;;;;;;;;;;;;;15.85;23.26;99713.59;4957282;29;19925;-80
2023/02/14 13:08:47;;;;;;;;;;;;;;;15.74;23.26;99712.66;4918017;29;19920;-80